CheckWX is a tool to help pilots better visualize weather data.  It is not intended as a substitute for an official pre-flight weather briefing.

08:02:32 UTC

UUBC TAF
Grabtsevo Airport
Kaluga, Russian Federation
TAF UUBC 190456Z 1906/1915 18006G11MPS 3100 -RA BR SCT008 OVC011 TEMPO 1908/1915 1500 SHRA BR BKN004 SCT015CB

Mar-19@
06:00 UTC

Mar-19 @ 06:00 UTC

Mar-19@
15:00 UTC

Mar-19 @ 15:00 UTC

TAF UUBC 190456Z 1906/1915 18006G11MPS 3100 -RA BR SCT008 OVC011
Wind
  • 180° at 12 KTS
  • {Gusting to 21 KTS
Conditions
Light Rain, Mist
Cloud Levels
  • Scattered at 800' AGL
  • Overcast at 1,100' AGL

Mar-19@
08:00 UTC

Mar-19 @ 08:00 UTC

Mar-19@
15:00 UTC

Mar-19 @ 15:00 UTC

TEMPO 1908/1915 1500 SHRA BR BKN004 SCT015CB

Temporary

Temporary Changes expected for less than half the time period

Conditions
Rain, Mist
Cloud Levels
  • Broken at 400' AGL
  • Scattered at 1,500' AGL